Waikoloa, Hawaii
Current Conditions -  °F | °C
As of 8:53 PM on Saturday 22 Nov 2014 (Local Time) from PHKO Reporting Station
Clear Clear  
Wind Chill: 78°   Ceiling: Unl
Heat Index: 80°   Visibility: 10mi
Dew Point: 67°   Wind: 5mph
Humidity: 68%   Direction: 140°SE
Pressure: 30.02"   Gusts: NA
Location:  19.83°N, 155.84°W
Report Text: PHKO 230653Z 14004KT 10SM CLR 26/19 A3002 RMK AO2 SLP165 T02560194
Loading
Personal Weather Stations






























Interactive Weather Map New forecast layout! Learn more

10-Day Weather Forecast

Advertisements
Track Severe Weather on mobile